sensor_id;sensor_type;location;lat;lon;timestamp;temperature;humidity
49218;DHT22;35045;51.194;7.268;2022-10-29T00:00:44;16.40;99.90
49218;DHT22;35045;51.194;7.268;2022-10-29T00:03:13;16.30;99.90
49218;DHT22;35045;51.194;7.268;2022-10-29T00:05:39;16.30;99.90
49218;DHT22;35045;51.194;7.268;2022-10-29T00:08:05;16.30;99.90
49218;DHT22;35045;51.194;7.268;2022-10-29T00:10:31;16.30;99.90
49218;DHT22;35045;51.194;7.268;2022-10-29T00:13:01;16.30;99.90
49218;DHT22;35045;51.194;7.268;2022-10-29T00:15:28;16.30;99.90
49218;DHT22;35045;51.194;7.268;2022-10-29T00:17:54;16.30;99.90
49218;DHT22;35045;51.194;7.268;2022-10-29T00:20:20;16.30;99.90
49218;DHT22;35045;51.194;7.268;2022-10-29T00:22:47;16.20;99.90
49218;DHT22;35045;51.194;7.268;2022-10-29T00:25:13;16.20;99.90
49218;DHT22;35045;51.194;7.268;2022-10-29T00:27:39;16.20;99.90
49218;DHT22;35045;51.194;7.268;2022-10-29T00:30:06;16.20;99.90
49218;DHT22;35045;51.194;7.268;2022-10-29T00:32:32;16.30;99.90
49218;DHT22;35045;51.194;7.268;2022-10-29T00:34:58;16.20;99.90
49218;DHT22;35045;51.194;7.268;2022-10-29T00:37:24;16.30;99.90
49218;DHT22;35045;51.194;7.268;2022-10-29T00:39:51;16.30;99.90
49218;DHT22;35045;51.194;7.268;2022-10-29T00:42:17;16.30;99.90
49218;DHT22;35045;51.194;7.268;2022-10-29T00:44:43;16.30;99.90
49218;DHT22;35045;51.194;7.268;2022-10-29T00:47:15;16.30;99.90
49218;DHT22;35045;51.194;7.268;2022-10-29T00:49:45;16.30;99.90
49218;DHT22;35045;51.194;7.268;2022-10-29T00:52:13;16.30;99.90
49218;DHT22;35045;51.194;7.268;2022-10-29T00:54:42;16.30;99.90
49218;DHT22;35045;51.194;7.268;2022-10-29T00:57:22;16.30;99.90
49218;DHT22;35045;51.194;7.268;2022-10-29T00:59:51;16.30;99.90
49218;DHT22;35045;51.194;7.268;2022-10-29T01:02:19;16.30;99.90
49218;DHT22;35045;51.194;7.268;2022-10-29T01:04:45;16.30;99.90
49218;DHT22;35045;51.194;7.268;2022-10-29T01:07:11;16.30;99.90
49218;DHT22;35045;51.194;7.268;2022-10-29T01:09:38;16.30;99.90
49218;DHT22;35045;51.194;7.268;2022-10-29T01:12:20;16.30;99.90
49218;DHT22;35045;51.194;7.268;2022-10-29T01:20:31;16.10;99.90
49218;DHT22;35045;51.194;7.268;2022-10-29T01:23:04;16.00;99.90
49218;DHT22;35045;51.194;7.268;2022-10-29T01:28:53;16.00;99.90
49218;DHT22;35045;51.194;7.268;2022-10-29T01:36:36;16.10;99.90
49218;DHT22;35045;51.194;7.268;2022-10-29T01:39:25;16.10;99.90
49218;DHT22;35045;51.194;7.268;2022-10-29T01:42:11;16.10;99.90
49218;DHT22;35045;51.194;7.268;2022-10-29T01:44:47;16.00;99.90
49218;DHT22;35045;51.194;7.268;2022-10-29T01:47:19;16.00;99.90
49218;DHT22;35045;51.194;7.268;2022-10-29T01:49:50;15.90;99.90
49218;DHT22;35045;51.194;7.268;2022-10-29T01:52:20;15.80;99.90
49218;DHT22;35045;51.194;7.268;2022-10-29T01:54:47;15.80;99.90
49218;DHT22;35045;51.194;7.268;2022-10-29T01:57:34;15.80;99.90
49218;DHT22;35045;51.194;7.268;2022-10-29T02:00:08;15.80;99.90
49218;DHT22;35045;51.194;7.268;2022-10-29T02:13:40;15.80;99.90
49218;DHT22;35045;51.194;7.268;2022-10-29T02:16:10;15.80;99.90
49218;DHT22;35045;51.194;7.268;2022-10-29T02:18:45;15.80;99.90
49218;DHT22;35045;51.194;7.268;2022-10-29T02:21:16;15.80;99.90
49218;DHT22;35045;51.194;7.268;2022-10-29T02:23:43;15.80;99.90
49218;DHT22;35045;51.194;7.268;2022-10-29T02:26:09;15.70;99.90
49218;DHT22;35045;51.194;7.268;2022-10-29T02:28:35;15.70;99.90
49218;DHT22;35045;51.194;7.268;2022-10-29T02:31:01;15.60;99.90
49218;DHT22;35045;51.194;7.268;2022-10-29T02:33:28;15.60;99.90
49218;DHT22;35045;51.194;7.268;2022-10-29T02:35:54;15.60;99.90
49218;DHT22;35045;51.194;7.268;2022-10-29T02:38:20;15.60;99.90
49218;DHT22;35045;51.194;7.268;2022-10-29T02:40:46;15.60;99.90
49218;DHT22;35045;51.194;7.268;2022-10-29T02:43:12;15.60;99.90
49218;DHT22;35045;51.194;7.268;2022-10-29T02:45:39;15.60;99.90
49218;DHT22;35045;51.194;7.268;2022-10-29T02:48:05;15.50;99.90
49218;DHT22;35045;51.194;7.268;2022-10-29T02:50:31;15.50;99.90
49218;DHT22;35045;51.194;7.268;2022-10-29T02:52:57;15.50;99.90
49218;DHT22;35045;51.194;7.268;2022-10-29T02:55:23;15.60;99.90
49218;DHT22;35045;51.194;7.268;2022-10-29T02:57:49;15.60;99.90
49218;DHT22;35045;51.194;7.268;2022-10-29T03:00:16;15.50;99.90
49218;DHT22;35045;51.194;7.268;2022-10-29T03:02:42;15.50;99.90
49218;DHT22;35045;51.194;7.268;2022-10-29T03:05:08;15.50;99.90
49218;DHT22;35045;51.194;7.268;2022-10-29T03:07:35;15.50;99.90
49218;DHT22;35045;51.194;7.268;2022-10-29T03:10:06;15.50;99.90
49218;DHT22;35045;51.194;7.268;2022-10-29T03:12:33;15.40;99.90
49218;DHT22;35045;51.194;7.268;2022-10-29T03:14:59;15.30;99.90
49218;DHT22;35045;51.194;7.268;2022-10-29T03:17:25;15.30;99.90
49218;DHT22;35045;51.194;7.268;2022-10-29T03:19:51;15.40;99.90
49218;DHT22;35045;51.194;7.268;2022-10-29T03:22:17;15.30;99.90
49218;DHT22;35045;51.194;7.268;2022-10-29T03:24:43;15.30;99.90
49218;DHT22;35045;51.194;7.268;2022-10-29T03:27:09;15.20;99.90
49218;DHT22;35045;51.194;7.268;2022-10-29T03:29:36;15.10;99.90
49218;DHT22;35045;51.194;7.268;2022-10-29T03:32:02;15.00;99.90
49218;DHT22;35045;51.194;7.268;2022-10-29T03:34:28;15.00;99.90
49218;DHT22;35045;51.194;7.268;2022-10-29T03:36:54;15.10;99.90
49218;DHT22;35045;51.194;7.268;2022-10-29T03:39:20;15.10;99.90
49218;DHT22;35045;51.194;7.268;2022-10-29T03:41:47;15.10;99.90
49218;DHT22;35045;51.194;7.268;2022-10-29T03:44:13;15.10;99.90
49218;DHT22;35045;51.194;7.268;2022-10-29T03:46:39;15.20;99.90
49218;DHT22;35045;51.194;7.268;2022-10-29T03:49:05;15.10;99.90
49218;DHT22;35045;51.194;7.268;2022-10-29T03:51:31;15.10;99.90
49218;DHT22;35045;51.194;7.268;2022-10-29T03:53:57;15.00;99.90
49218;DHT22;35045;51.194;7.268;2022-10-29T03:56:23;14.90;99.90
49218;DHT22;35045;51.194;7.268;2022-10-29T03:58:50;14.90;99.90
49218;DHT22;35045;51.194;7.268;2022-10-29T04:01:16;14.90;99.90
49218;DHT22;35045;51.194;7.268;2022-10-29T04:03:42;14.90;99.90
49218;DHT22;35045;51.194;7.268;2022-10-29T04:06:12;14.90;99.90
49218;DHT22;35045;51.194;7.268;2022-10-29T04:08:39;14.90;99.90
49218;DHT22;35045;51.194;7.268;2022-10-29T04:11:06;14.80;99.90
49218;DHT22;35045;51.194;7.268;2022-10-29T04:13:33;14.80;99.90
49218;DHT22;35045;51.194;7.268;2022-10-29T04:15:59;14.80;99.90
49218;DHT22;35045;51.194;7.268;2022-10-29T04:18:25;14.90;99.90
49218;DHT22;35045;51.194;7.268;2022-10-29T04:20:51;15.00;99.90
49218;DHT22;35045;51.194;7.268;2022-10-29T04:23:38;15.00;99.90
49218;DHT22;35045;51.194;7.268;2022-10-29T04:26:24;15.00;99.90
49218;DHT22;35045;51.194;7.268;2022-10-29T04:29:10;14.90;99.90
49218;DHT22;35045;51.194;7.268;2022-10-29T04:31:37;14.90;99.90
49218;DHT22;35045;51.194;7.268;2022-10-29T04:34:03;14.90;99.90
49218;DHT22;35045;51.194;7.268;2022-10-29T04:36:30;14.90;99.90
49218;DHT22;35045;51.194;7.268;2022-10-29T04:38:56;14.90;99.90
49218;DHT22;35045;51.194;7.268;2022-10-29T04:41:22;14.90;99.90
49218;DHT22;35045;51.194;7.268;2022-10-29T04:43:48;14.90;99.90
49218;DHT22;35045;51.194;7.268;2022-10-29T04:46:14;14.90;99.90
49218;DHT22;35045;51.194;7.268;2022-10-29T04:48:40;14.80;99.90
49218;DHT22;35045;51.194;7.268;2022-10-29T04:51:06;14.80;99.90
49218;DHT22;35045;51.194;7.268;2022-10-29T04:53:40;14.80;99.90
49218;DHT22;35045;51.194;7.268;2022-10-29T04:56:06;14.80;99.90
49218;DHT22;35045;51.194;7.268;2022-10-29T04:58:32;14.80;99.90
49218;DHT22;35045;51.194;7.268;2022-10-29T05:01:02;14.90;99.90
49218;DHT22;35045;51.194;7.268;2022-10-29T05:03:30;14.90;99.90
49218;DHT22;35045;51.194;7.268;2022-10-29T05:05:57;15.00;99.90
49218;DHT22;35045;51.194;7.268;2022-10-29T05:08:23;15.00;99.90
49218;DHT22;35045;51.194;7.268;2022-10-29T05:10:49;14.90;99.90
49218;DHT22;35045;51.194;7.268;2022-10-29T05:13:15;14.80;99.90
49218;DHT22;35045;51.194;7.268;2022-10-29T05:15:41;14.70;99.90
49218;DHT22;35045;51.194;7.268;2022-10-29T05:18:08;14.70;99.90
49218;DHT22;35045;51.194;7.268;2022-10-29T05:20:35;14.80;99.90
49218;DHT22;35045;51.194;7.268;2022-10-29T05:23:03;14.90;99.90
49218;DHT22;35045;51.194;7.268;2022-10-29T05:25:31;14.90;99.90
49218;DHT22;35045;51.194;7.268;2022-10-29T05:28:02;15.00;99.90
49218;DHT22;35045;51.194;7.268;2022-10-29T05:30:29;15.00;99.90
49218;DHT22;35045;51.194;7.268;2022-10-29T05:32:55;15.00;99.90
49218;DHT22;35045;51.194;7.268;2022-10-29T05:35:21;15.00;99.90
49218;DHT22;35045;51.194;7.268;2022-10-29T05:37:54;15.00;99.90
49218;DHT22;35045;51.194;7.268;2022-10-29T05:40:22;15.00;99.90
49218;DHT22;35045;51.194;7.268;2022-10-29T05:42:49;15.00;99.90
49218;DHT22;35045;51.194;7.268;2022-10-29T05:45:15;15.10;99.90
49218;DHT22;35045;51.194;7.268;2022-10-29T05:47:42;15.10;99.90
49218;DHT22;35045;51.194;7.268;2022-10-29T05:50:09;15.20;99.90
49218;DHT22;35045;51.194;7.268;2022-10-29T05:52:36;15.20;99.90
49218;DHT22;35045;51.194;7.268;2022-10-29T05:55:02;15.20;99.90
49218;DHT22;35045;51.194;7.268;2022-10-29T05:57:28;15.30;99.90
49218;DHT22;35045;51.194;7.268;2022-10-29T05:59:54;15.30;99.90
49218;DHT22;35045;51.194;7.268;2022-10-29T06:02:21;15.30;99.90
49218;DHT22;35045;51.194;7.268;2022-10-29T06:04:47;15.30;99.90
49218;DHT22;35045;51.194;7.268;2022-10-29T06:07:13;15.30;99.90
49218;DHT22;35045;51.194;7.268;2022-10-29T06:09:39;15.30;99.90
49218;DHT22;35045;51.194;7.268;2022-10-29T06:12:06;15.30;99.90
49218;DHT22;35045;51.194;7.268;2022-10-29T06:14:32;15.30;99.90
49218;DHT22;35045;51.194;7.268;2022-10-29T06:16:59;15.30;99.90
49218;DHT22;35045;51.194;7.268;2022-10-29T06:19:26;15.30;99.90
49218;DHT22;35045;51.194;7.268;2022-10-29T06:21:52;15.30;99.90
49218;DHT22;35045;51.194;7.268;2022-10-29T06:24:19;15.30;99.90
49218;DHT22;35045;51.194;7.268;2022-10-29T06:26:45;15.30;99.90
49218;DHT22;35045;51.194;7.268;2022-10-29T06:29:11;15.30;99.90
49218;DHT22;35045;51.194;7.268;2022-10-29T06:31:37;15.30;99.90
49218;DHT22;35045;51.194;7.268;2022-10-29T06:34:03;15.30;99.90
49218;DHT22;35045;51.194;7.268;2022-10-29T06:36:29;15.30;99.90
49218;DHT22;35045;51.194;7.268;2022-10-29T06:38:55;15.40;99.90
49218;DHT22;35045;51.194;7.268;2022-10-29T06:41:21;15.40;99.90
49218;DHT22;35045;51.194;7.268;2022-10-29T06:43:51;15.50;99.90
49218;DHT22;35045;51.194;7.268;2022-10-29T06:46:18;15.50;99.90
49218;DHT22;35045;51.194;7.268;2022-10-29T06:48:44;15.60;99.90
49218;DHT22;35045;51.194;7.268;2022-10-29T06:51:10;15.60;99.90
49218;DHT22;35045;51.194;7.268;2022-10-29T06:53:36;15.60;99.90
49218;DHT22;35045;51.194;7.268;2022-10-29T06:56:02;15.60;99.90
49218;DHT22;35045;51.194;7.268;2022-10-29T06:58:29;15.60;99.90
49218;DHT22;35045;51.194;7.268;2022-10-29T07:00:55;15.60;99.90
49218;DHT22;35045;51.194;7.268;2022-10-29T07:03:24;15.70;99.90
49218;DHT22;35045;51.194;7.268;2022-10-29T07:05:57;15.70;99.90
49218;DHT22;35045;51.194;7.268;2022-10-29T07:08:24;15.70;99.90
49218;DHT22;35045;51.194;7.268;2022-10-29T07:10:51;15.70;99.90
49218;DHT22;35045;51.194;7.268;2022-10-29T07:13:18;15.70;99.90
49218;DHT22;35045;51.194;7.268;2022-10-29T07:15:44;15.70;99.90
49218;DHT22;35045;51.194;7.268;2022-10-29T07:18:11;15.80;99.90
49218;DHT22;35045;51.194;7.268;2022-10-29T07:20:39;15.80;99.90
49218;DHT22;35045;51.194;7.268;2022-10-29T07:23:07;15.80;99.90
49218;DHT22;35045;51.194;7.268;2022-10-29T07:25:34;15.80;99.90
49218;DHT22;35045;51.194;7.268;2022-10-29T07:28:02;15.80;99.90
49218;DHT22;35045;51.194;7.268;2022-10-29T07:30:28;15.90;99.90
49218;DHT22;35045;51.194;7.268;2022-10-29T07:32:55;15.90;99.90
49218;DHT22;35045;51.194;7.268;2022-10-29T07:35:21;16.00;99.90
49218;DHT22;35045;51.194;7.268;2022-10-29T07:37:47;16.00;99.90
49218;DHT22;35045;51.194;7.268;2022-10-29T07:40:13;16.10;99.90
49218;DHT22;35045;51.194;7.268;2022-10-29T07:42:39;16.10;99.90
49218;DHT22;35045;51.194;7.268;2022-10-29T07:45:06;16.10;99.90
49218;DHT22;35045;51.194;7.268;2022-10-29T07:47:32;16.20;99.90
49218;DHT22;35045;51.194;7.268;2022-10-29T07:49:58;16.20;99.90
49218;DHT22;35045;51.194;7.268;2022-10-29T07:52:25;16.30;99.90
49218;DHT22;35045;51.194;7.268;2022-10-29T07:54:51;16.30;99.90
49218;DHT22;35045;51.194;7.268;2022-10-29T07:57:17;16.40;99.90
49218;DHT22;35045;51.194;7.268;2022-10-29T07:59:43;16.50;99.90
49218;DHT22;35045;51.194;7.268;2022-10-29T08:02:09;16.50;99.90
49218;DHT22;35045;51.194;7.268;2022-10-29T08:04:36;16.50;99.90
49218;DHT22;35045;51.194;7.268;2022-10-29T08:07:02;16.50;99.90
49218;DHT22;35045;51.194;7.268;2022-10-29T08:09:28;16.60;99.90
49218;DHT22;35045;51.194;7.268;2022-10-29T08:11:54;16.70;99.90
49218;DHT22;35045;51.194;7.268;2022-10-29T08:14:20;16.70;99.90
49218;DHT22;35045;51.194;7.268;2022-10-29T08:16:47;16.70;99.90
49218;DHT22;35045;51.194;7.268;2022-10-29T08:19:13;16.70;99.90
49218;DHT22;35045;51.194;7.268;2022-10-29T08:21:40;16.70;99.90
49218;DHT22;35045;51.194;7.268;2022-10-29T08:24:06;16.80;99.90
49218;DHT22;35045;51.194;7.268;2022-10-29T08:26:32;16.80;99.90
49218;DHT22;35045;51.194;7.268;2022-10-29T08:28:58;16.90;99.90
49218;DHT22;35045;51.194;7.268;2022-10-29T08:31:24;17.00;99.90
49218;DHT22;35045;51.194;7.268;2022-10-29T08:33:50;17.00;99.90
49218;DHT22;35045;51.194;7.268;2022-10-29T08:36:17;17.10;99.90
49218;DHT22;35045;51.194;7.268;2022-10-29T08:38:43;17.20;99.90
49218;DHT22;35045;51.194;7.268;2022-10-29T08:41:37;17.20;99.90
49218;DHT22;35045;51.194;7.268;2022-10-29T08:47:12;17.40;99.90
49218;DHT22;35045;51.194;7.268;2022-10-29T08:49:46;17.50;99.90
49218;DHT22;35045;51.194;7.268;2022-10-29T08:52:28;17.70;99.90
49218;DHT22;35045;51.194;7.268;2022-10-29T08:55:07;17.80;99.90
49218;DHT22;35045;51.194;7.268;2022-10-29T08:57:43;17.90;99.90
49218;DHT22;35045;51.194;7.268;2022-10-29T09:00:14;17.90;99.90
49218;DHT22;35045;51.194;7.268;2022-10-29T09:02:40;17.90;99.90
49218;DHT22;35045;51.194;7.268;2022-10-29T09:05:17;17.90;99.90
49218;DHT22;35045;51.194;7.268;2022-10-29T09:07:55;18.00;99.90
49218;DHT22;35045;51.194;7.268;2022-10-29T09:10:49;18.10;99.90
49218;DHT22;35045;51.194;7.268;2022-10-29T09:13:37;18.30;99.90
49218;DHT22;35045;51.194;7.268;2022-10-29T09:19:12;18.50;99.90
49218;DHT22;35045;51.194;7.268;2022-10-29T09:25:03;18.80;99.90
49218;DHT22;35045;51.194;7.268;2022-10-29T09:30:15;19.00;99.90
49218;DHT22;35045;51.194;7.268;2022-10-29T09:32:58;19.10;99.90
49218;DHT22;35045;51.194;7.268;2022-10-29T09:35:37;19.30;99.90
49218;DHT22;35045;51.194;7.268;2022-10-29T09:38:18;19.40;99.90
49218;DHT22;35045;51.194;7.268;2022-10-29T09:40:45;19.50;99.90
49218;DHT22;35045;51.194;7.268;2022-10-29T09:43:39;19.50;99.90
49218;DHT22;35045;51.194;7.268;2022-10-29T09:51:32;19.70;99.90
49218;DHT22;35045;51.194;7.268;2022-10-29T09:54:01;19.70;99.90
49218;DHT22;35045;51.194;7.268;2022-10-29T09:56:27;19.70;99.90
49218;DHT22;35045;51.194;7.268;2022-10-29T09:59:00;19.70;99.90
49218;DHT22;35045;51.194;7.268;2022-10-29T10:01:28;19.70;99.90
49218;DHT22;35045;51.194;7.268;2022-10-29T10:03:58;19.70;99.90
49218;DHT22;35045;51.194;7.268;2022-10-29T10:06:38;19.80;99.90
49218;DHT22;35045;51.194;7.268;2022-10-29T10:09:20;19.70;99.90
49218;DHT22;35045;51.194;7.268;2022-10-29T10:11:49;19.80;99.90
49218;DHT22;35045;51.194;7.268;2022-10-29T10:14:19;19.90;99.90
49218;DHT22;35045;51.194;7.268;2022-10-29T10:16:56;20.00;99.90
49218;DHT22;35045;51.194;7.268;2022-10-29T10:19:25;19.90;99.90
49218;DHT22;35045;51.194;7.268;2022-10-29T10:21:57;19.90;99.90
49218;DHT22;35045;51.194;7.268;2022-10-29T10:24:32;19.90;99.90
49218;DHT22;35045;51.194;7.268;2022-10-29T10:26:59;19.90;99.90
49218;DHT22;35045;51.194;7.268;2022-10-29T10:29:26;19.90;99.90
49218;DHT22;35045;51.194;7.268;2022-10-29T10:37:02;19.90;99.90
49218;DHT22;35045;51.194;7.268;2022-10-29T10:39:38;19.90;99.90
49218;DHT22;35045;51.194;7.268;2022-10-29T10:42:26;19.80;99.90
49218;DHT22;35045;51.194;7.268;2022-10-29T10:47:29;19.90;99.90
49218;DHT22;35045;51.194;7.268;2022-10-29T10:50:29;20.00;99.90
49218;DHT22;35045;51.194;7.268;2022-10-29T10:53:02;20.00;99.90
49218;DHT22;35045;51.194;7.268;2022-10-29T10:55:31;20.00;99.90
49218;DHT22;35045;51.194;7.268;2022-10-29T10:58:12;20.00;99.90
49218;DHT22;35045;51.194;7.268;2022-10-29T11:00:43;20.00;99.90
49218;DHT22;35045;51.194;7.268;2022-10-29T11:03:20;20.00;99.90
49218;DHT22;35045;51.194;7.268;2022-10-29T11:06:09;20.00;99.90
49218;DHT22;35045;51.194;7.268;2022-10-29T11:11:09;19.90;99.90
49218;DHT22;35045;51.194;7.268;2022-10-29T11:13:38;19.90;99.90
49218;DHT22;35045;51.194;7.268;2022-10-29T11:16:23;19.90;99.90
49218;DHT22;35045;51.194;7.268;2022-10-29T11:21:44;19.90;99.90
49218;DHT22;35045;51.194;7.268;2022-10-29T11:24:25;19.90;99.90
49218;DHT22;35045;51.194;7.268;2022-10-29T11:26:58;19.90;99.90
49218;DHT22;35045;51.194;7.268;2022-10-29T11:29:50;19.90;99.90
49218;DHT22;35045;51.194;7.268;2022-10-29T11:32:24;20.00;99.90
49218;DHT22;35045;51.194;7.268;2022-10-29T11:35:08;19.90;99.90
49218;DHT22;35045;51.194;7.268;2022-10-29T11:37:47;20.00;99.90
49218;DHT22;35045;51.194;7.268;2022-10-29T11:40:20;20.10;99.90
49218;DHT22;35045;51.194;7.268;2022-10-29T11:42:47;20.10;99.90
49218;DHT22;35045;51.194;7.268;2022-10-29T11:45:28;20.20;99.90
49218;DHT22;35045;51.194;7.268;2022-10-29T11:48:14;20.20;99.90
49218;DHT22;35045;51.194;7.268;2022-10-29T11:51:08;20.20;99.90
49218;DHT22;35045;51.194;7.268;2022-10-29T11:59:00;20.50;99.90
49218;DHT22;35045;51.194;7.268;2022-10-29T12:01:41;20.70;99.90
49218;DHT22;35045;51.194;7.268;2022-10-29T12:07:30;20.70;99.90
49218;DHT22;35045;51.194;7.268;2022-10-29T12:12:32;21.10;99.90
49218;DHT22;35045;51.194;7.268;2022-10-29T12:26:39;21.20;99.90
49218;DHT22;35045;51.194;7.268;2022-10-29T12:29:36;21.30;99.90
49218;DHT22;35045;51.194;7.268;2022-10-29T12:32:24;21.30;99.90
49218;DHT22;35045;51.194;7.268;2022-10-29T12:35:04;21.30;99.90
49218;DHT22;35045;51.194;7.268;2022-10-29T12:37:59;21.30;99.90
49218;DHT22;35045;51.194;7.268;2022-10-29T12:40:34;21.30;99.90
49218;DHT22;35045;51.194;7.268;2022-10-29T12:43:06;21.30;99.90
49218;DHT22;35045;51.194;7.268;2022-10-29T12:45:46;21.30;99.90
49218;DHT22;35045;51.194;7.268;2022-10-29T12:48:47;21.40;99.90
49218;DHT22;35045;51.194;7.268;2022-10-29T12:56:39;21.60;99.90
49218;DHT22;35045;51.194;7.268;2022-10-29T12:59:29;21.70;99.90
49218;DHT22;35045;51.194;7.268;2022-10-29T13:12:58;22.20;99.90
49218;DHT22;35045;51.194;7.268;2022-10-29T13:15:31;22.20;99.90
49218;DHT22;35045;51.194;7.268;2022-10-29T13:18:06;22.30;99.90
49218;DHT22;35045;51.194;7.268;2022-10-29T13:20:42;22.50;99.90
49218;DHT22;35045;51.194;7.268;2022-10-29T13:25:50;22.70;99.90
49218;DHT22;35045;51.194;7.268;2022-10-29T13:30:44;22.60;99.90
49218;DHT22;35045;51.194;7.268;2022-10-29T13:41:24;22.20;99.90
49218;DHT22;35045;51.194;7.268;2022-10-29T13:44:24;22.30;99.90
49218;DHT22;35045;51.194;7.268;2022-10-29T13:46:56;22.30;99.90
49218;DHT22;35045;51.194;7.268;2022-10-29T13:52:16;22.20;99.90
49218;DHT22;35045;51.194;7.268;2022-10-29T13:54:57;22.20;99.90
49218;DHT22;35045;51.194;7.268;2022-10-29T14:00:19;22.00;99.90
49218;DHT22;35045;51.194;7.268;2022-10-29T14:03:05;21.90;99.90
49218;DHT22;35045;51.194;7.268;2022-10-29T14:05:41;21.90;99.90
49218;DHT22;35045;51.194;7.268;2022-10-29T14:10:45;21.90;99.90
49218;DHT22;35045;51.194;7.268;2022-10-29T14:18:26;21.80;99.90
49218;DHT22;35045;51.194;7.268;2022-10-29T14:20:56;21.80;99.90
49218;DHT22;35045;51.194;7.268;2022-10-29T14:23:25;21.70;99.90
49218;DHT22;35045;51.194;7.268;2022-10-29T14:25:57;21.70;99.90
49218;DHT22;35045;51.194;7.268;2022-10-29T14:28:26;21.60;99.90
49218;DHT22;35045;51.194;7.268;2022-10-29T14:31:04;21.60;99.90
49218;DHT22;35045;51.194;7.268;2022-10-29T14:33:33;21.60;99.90
49218;DHT22;35045;51.194;7.268;2022-10-29T14:36:05;21.50;99.90
49218;DHT22;35045;51.194;7.268;2022-10-29T14:38:56;21.50;99.90
49218;DHT22;35045;51.194;7.268;2022-10-29T14:41:23;21.50;99.90
49218;DHT22;35045;51.194;7.268;2022-10-29T14:44:15;21.40;99.90
49218;DHT22;35045;51.194;7.268;2022-10-29T14:46:50;21.40;99.90
49218;DHT22;35045;51.194;7.268;2022-10-29T14:49:23;21.40;99.90
49218;DHT22;35045;51.194;7.268;2022-10-29T14:54:30;21.30;99.90
49218;DHT22;35045;51.194;7.268;2022-10-29T14:57:12;21.20;99.90
49218;DHT22;35045;51.194;7.268;2022-10-29T14:59:47;21.20;99.90
49218;DHT22;35045;51.194;7.268;2022-10-29T15:02:14;21.20;99.90
49218;DHT22;35045;51.194;7.268;2022-10-29T15:04:58;21.20;99.90
49218;DHT22;35045;51.194;7.268;2022-10-29T15:07:33;21.10;99.90
49218;DHT22;35045;51.194;7.268;2022-10-29T15:12:45;21.10;99.90
49218;DHT22;35045;51.194;7.268;2022-10-29T15:18:14;21.00;99.90
49218;DHT22;35045;51.194;7.268;2022-10-29T15:20:44;20.90;99.90
49218;DHT22;35045;51.194;7.268;2022-10-29T15:23:29;20.70;99.90
49218;DHT22;35045;51.194;7.268;2022-10-29T15:26:06;20.70;99.90
49218;DHT22;35045;51.194;7.268;2022-10-29T15:28:39;20.60;99.90
49218;DHT22;35045;51.194;7.268;2022-10-29T15:31:06;20.50;99.90
49218;DHT22;35045;51.194;7.268;2022-10-29T15:33:34;20.40;99.90
49218;DHT22;35045;51.194;7.268;2022-10-29T15:36:03;20.30;99.90
49218;DHT22;35045;51.194;7.268;2022-10-29T15:43:46;20.10;99.90
49218;DHT22;35045;51.194;7.268;2022-10-29T15:46:27;20.10;99.90
49218;DHT22;35045;51.194;7.268;2022-10-29T15:48:54;20.00;99.90
49218;DHT22;35045;51.194;7.268;2022-10-29T15:51:24;20.00;99.90
49218;DHT22;35045;51.194;7.268;2022-10-29T15:53:56;19.90;99.90
49218;DHT22;35045;51.194;7.268;2022-10-29T15:56:23;19.90;99.90
49218;DHT22;35045;51.194;7.268;2022-10-29T15:58:49;19.80;99.90
49218;DHT22;35045;51.194;7.268;2022-10-29T16:01:17;19.80;99.90
49218;DHT22;35045;51.194;7.268;2022-10-29T16:03:43;19.70;99.90
49218;DHT22;35045;51.194;7.268;2022-10-29T16:06:10;19.70;99.90
49218;DHT22;35045;51.194;7.268;2022-10-29T16:08:43;19.60;99.90
49218;DHT22;35045;51.194;7.268;2022-10-29T16:11:20;19.60;99.90
49218;DHT22;35045;51.194;7.268;2022-10-29T16:13:47;19.50;99.90
49218;DHT22;35045;51.194;7.268;2022-10-29T16:16:19;19.40;99.90
49218;DHT22;35045;51.194;7.268;2022-10-29T16:18:46;19.50;99.90
49218;DHT22;35045;51.194;7.268;2022-10-29T16:21:24;19.40;99.90
49218;DHT22;35045;51.194;7.268;2022-10-29T16:23:51;19.30;99.90
49218;DHT22;35045;51.194;7.268;2022-10-29T16:26:23;19.30;99.90
49218;DHT22;35045;51.194;7.268;2022-10-29T16:28:50;19.20;99.90
49218;DHT22;35045;51.194;7.268;2022-10-29T16:33:49;19.10;99.90
49218;DHT22;35045;51.194;7.268;2022-10-29T16:36:16;19.10;99.90
49218;DHT22;35045;51.194;7.268;2022-10-29T16:38:42;19.10;99.90
49218;DHT22;35045;51.194;7.268;2022-10-29T16:41:13;19.00;99.90
49218;DHT22;35045;51.194;7.268;2022-10-29T16:43:40;19.00;99.90
49218;DHT22;35045;51.194;7.268;2022-10-29T16:46:07;18.90;99.90
49218;DHT22;35045;51.194;7.268;2022-10-29T16:48:34;18.90;99.90
49218;DHT22;35045;51.194;7.268;2022-10-29T16:51:00;18.90;99.90
49218;DHT22;35045;51.194;7.268;2022-10-29T16:53:27;18.90;99.90
49218;DHT22;35045;51.194;7.268;2022-10-29T16:55:53;18.90;99.90
49218;DHT22;35045;51.194;7.268;2022-10-29T16:58:20;18.80;99.90
49218;DHT22;35045;51.194;7.268;2022-10-29T17:00:46;18.80;99.90
49218;DHT22;35045;51.194;7.268;2022-10-29T17:03:13;18.80;99.90
49218;DHT22;35045;51.194;7.268;2022-10-29T17:05:42;18.80;99.90
49218;DHT22;35045;51.194;7.268;2022-10-29T17:08:09;18.80;99.90
49218;DHT22;35045;51.194;7.268;2022-10-29T17:10:35;18.80;99.90
49218;DHT22;35045;51.194;7.268;2022-10-29T17:13:02;18.70;99.90
49218;DHT22;35045;51.194;7.268;2022-10-29T17:15:28;18.70;99.90
49218;DHT22;35045;51.194;7.268;2022-10-29T17:17:55;18.60;99.90
49218;DHT22;35045;51.194;7.268;2022-10-29T17:20:21;18.60;99.90
49218;DHT22;35045;51.194;7.268;2022-10-29T17:22:47;18.60;99.90
49218;DHT22;35045;51.194;7.268;2022-10-29T17:25:13;18.60;99.90
49218;DHT22;35045;51.194;7.268;2022-10-29T17:27:40;18.60;99.90
49218;DHT22;35045;51.194;7.268;2022-10-29T17:30:08;18.50;99.90
49218;DHT22;35045;51.194;7.268;2022-10-29T17:32:34;18.50;99.90
49218;DHT22;35045;51.194;7.268;2022-10-29T17:35:01;18.50;99.90
49218;DHT22;35045;51.194;7.268;2022-10-29T17:37:27;18.50;99.90
49218;DHT22;35045;51.194;7.268;2022-10-29T17:39:53;18.50;99.90
49218;DHT22;35045;51.194;7.268;2022-10-29T17:42:19;18.50;99.90
49218;DHT22;35045;51.194;7.268;2022-10-29T17:44:46;18.40;99.90
49218;DHT22;35045;51.194;7.268;2022-10-29T17:47:12;18.50;99.90
49218;DHT22;35045;51.194;7.268;2022-10-29T17:49:38;18.40;99.90
49218;DHT22;35045;51.194;7.268;2022-10-29T17:52:04;18.40;99.90
49218;DHT22;35045;51.194;7.268;2022-10-29T17:54:31;18.40;99.90
49218;DHT22;35045;51.194;7.268;2022-10-29T17:56:58;18.40;99.90
49218;DHT22;35045;51.194;7.268;2022-10-29T17:59:25;18.40;99.90
49218;DHT22;35045;51.194;7.268;2022-10-29T18:01:51;18.40;99.90
49218;DHT22;35045;51.194;7.268;2022-10-29T18:04:17;18.30;99.90
49218;DHT22;35045;51.194;7.268;2022-10-29T18:06:43;18.30;99.90